Time;durP1;ratioP1;P1;durP2;ratioP2;P2;SDS_P1;SDS_P2;PMS_P1;PMS_P2;Temp;Humidity;BMP_temperature;BMP_pressure;BME280_temperature;BME280_humidity;BME280_pressure;Samples;Min_cycle;Max_cycle;Signal;HPM_P1;HPM_P2
2022/11/07 00:00:10;;;;;;;;;;;10.50;99.90;;;;;;5074122;28;19926;-71
2022/11/07 00:02:35;;;;;;;;;;;10.60;99.90;;;;;;5066842;28;20364;-70
2022/11/07 00:05:02;;;;;;;;;;;10.60;99.90;;;;;;5087494;28;19927;-74
2022/11/07 00:07:27;;;;;;;;;;;10.60;99.90;;;;;;5105699;27;19921;-73
2022/11/07 00:09:53;;;;;;;;;;;10.70;99.90;;;;;;5066485;28;19928;-75
2022/11/07 00:12:18;;;;;;;;;;;10.70;99.90;;;;;;5099756;27;19928;-72
2022/11/07 00:14:44;;;;;;;;;;;10.70;99.90;;;;;;5071011;28;19921;-71
2022/11/07 00:17:09;;;;;;;;;;;10.60;99.90;;;;;;5070439;28;20384;-73
2022/11/07 00:19:35;;;;;;;;;;;10.60;99.90;;;;;;5074419;28;19924;-74
2022/11/07 00:22:00;;;;;;;;;;;10.60;99.90;;;;;;5068932;28;19920;-70
2022/11/07 00:24:26;;;;;;;;;;;10.60;99.90;;;;;;5072544;28;20036;-74
2022/11/07 00:26:51;;;;;;;;;;;10.70;99.90;;;;;;5071470;28;19924;-73
2022/11/07 00:29:18;;;;;;;;;;;10.70;99.90;;;;;;5067735;28;20453;-74
2022/11/07 00:31:44;;;;;;;;;;;10.70;99.90;;;;;;5071099;28;19920;-76
2022/11/07 00:34:09;;;;;;;;;;;10.80;99.90;;;;;;5088841;28;20011;-72
2022/11/07 00:36:35;;;;;;;;;;;10.80;99.90;;;;;;5065682;28;19920;-70
2022/11/07 00:39:00;;;;;;;;;;;10.80;99.90;;;;;;5071775;28;19975;-74
2022/11/07 00:41:26;;;;;;;;;;;10.70;99.90;;;;;;5086413;28;20345;-72
2022/11/07 00:43:52;;;;;;;;;;;10.70;99.90;;;;;;5070996;28;19936;-71
2022/11/07 00:46:18;;;;;;;;;;;10.60;99.90;;;;;;5053725;28;19929;-76
2022/11/07 00:48:44;;;;;;;;;;;10.60;99.90;;;;;;5069373;28;19928;-72
2022/11/07 00:51:11;;;;;;;;;;;10.60;99.90;;;;;;5062915;28;19920;-74
2022/11/07 00:53:36;;;;;;;;;;;10.60;99.90;;;;;;5069132;28;20030;-74
2022/11/07 00:56:03;;;;;;;;;;;10.60;99.90;;;;;;5070508;28;20386;-75
2022/11/07 00:58:28;;;;;;;;;;;10.70;99.90;;;;;;5095934;28;19931;-77
2022/11/07 01:00:54;;;;;;;;;;;10.70;99.90;;;;;;5080295;28;19999;-72
2022/11/07 01:06:04;;;;;;;;;;;10.70;99.90;;;;;;5075848;28;20282;-74
2022/11/07 01:08:29;;;;;;;;;;;10.70;99.90;;;;;;5078674;28;20399;-76
2022/11/07 01:10:55;;;;;;;;;;;10.70;99.90;;;;;;5067804;28;20035;-71
2022/11/07 01:13:21;;;;;;;;;;;10.70;99.90;;;;;;5063528;28;20012;-70
2022/11/07 01:15:47;;;;;;;;;;;10.80;99.90;;;;;;5052599;28;19932;-73
2022/11/07 01:18:12;;;;;;;;;;;10.80;99.90;;;;;;5062991;28;19921;-69
2022/11/07 01:20:38;;;;;;;;;;;10.80;99.90;;;;;;5064397;28;20249;-73
2022/11/07 01:23:03;;;;;;;;;;;10.90;99.90;;;;;;5068128;28;20379;-74
2022/11/07 01:25:29;;;;;;;;;;;10.80;99.90;;;;;;5099270;27;20382;-73
2022/11/07 01:27:54;;;;;;;;;;;10.90;99.90;;;;;;5068096;28;20266;-76
2022/11/07 01:30:20;;;;;;;;;;;10.90;99.90;;;;;;5072544;28;19921;-71
2022/11/07 01:32:45;;;;;;;;;;;10.90;99.90;;;;;;5070754;28;19959;-74
2022/11/07 01:35:10;;;;;;;;;;;10.90;99.90;;;;;;5066583;28;19924;-74
2022/11/07 01:37:36;;;;;;;;;;;11.00;99.90;;;;;;5065046;28;19934;-74
2022/11/07 01:40:02;;;;;;;;;;;11.00;99.90;;;;;;5068561;28;19920;-75
2022/11/07 01:42:27;;;;;;;;;;;11.00;99.90;;;;;;5094475;28;19928;-77
2022/11/07 01:44:54;;;;;;;;;;;11.00;99.90;;;;;;5074203;28;19928;-76
2022/11/07 01:47:21;;;;;;;;;;;11.00;99.90;;;;;;5077634;28;19920;-72
2022/11/07 01:49:47;;;;;;;;;;;10.90;99.90;;;;;;5075184;28;19928;-78
2022/11/07 01:52:18;;;;;;;;;;;11.00;99.90;;;;;;5076397;28;19975;-75
2022/11/07 01:54:46;;;;;;;;;;;11.10;99.90;;;;;;5079007;28;19921;-75
2022/11/07 01:57:20;;;;;;;;;;;11.00;99.90;;;;;;5079180;28;20356;-74
2022/11/07 01:59:46;;;;;;;;;;;11.00;99.90;;;;;;5113212;27;20371;-70
2022/11/07 02:02:11;;;;;;;;;;;11.00;99.90;;;;;;5073639;28;19921;-73
2022/11/07 02:04:37;;;;;;;;;;;11.00;99.90;;;;;;5062388;28;19935;-72
2022/11/07 02:07:10;;;;;;;;;;;11.00;99.90;;;;;;5071245;28;19920;-74
2022/11/07 02:09:35;;;;;;;;;;;11.10;99.90;;;;;;5082341;28;19923;-76
2022/11/07 02:12:01;;;;;;;;;;;11.00;99.90;;;;;;5056345;28;19921;-72
2022/11/07 02:14:27;;;;;;;;;;;11.10;99.90;;;;;;5081034;28;19924;-72
2022/11/07 02:16:53;;;;;;;;;;;11.10;99.90;;;;;;5078911;28;19927;-75
2022/11/07 02:19:32;;;;;;;;;;;11.10;99.90;;;;;;5057418;28;20453;-74
2022/11/07 02:21:59;;;;;;;;;;;11.10;99.90;;;;;;5069411;28;19924;-73
2022/11/07 02:24:27;;;;;;;;;;;11.10;99.90;;;;;;5080879;28;19924;-73
2022/11/07 02:26:53;;;;;;;;;;;11.10;99.90;;;;;;5072714;28;19924;-78
2022/11/07 02:29:20;;;;;;;;;;;11.10;99.90;;;;;;5082908;28;19964;-72
2022/11/07 02:31:45;;;;;;;;;;;11.10;99.90;;;;;;5080565;28;19927;-73
2022/11/07 02:34:11;;;;;;;;;;;11.10;99.90;;;;;;5067458;28;19924;-71
2022/11/07 02:36:38;;;;;;;;;;;11.10;99.90;;;;;;5076650;28;20405;-75
2022/11/07 02:39:04;;;;;;;;;;;11.10;99.90;;;;;;5105063;27;19935;-73
2022/11/07 02:41:32;;;;;;;;;;;11.10;99.90;;;;;;5073617;28;19925;-70
2022/11/07 02:43:59;;;;;;;;;;;11.20;99.90;;;;;;5099354;28;20386;-74
2022/11/07 02:46:25;;;;;;;;;;;11.20;99.90;;;;;;5081081;28;20434;-77
2022/11/07 02:48:53;;;;;;;;;;;11.00;99.90;;;;;;5064849;28;19932;-73
2022/11/07 02:51:19;;;;;;;;;;;11.10;99.90;;;;;;5072788;28;20717;-71
2022/11/07 02:53:45;;;;;;;;;;;11.10;99.90;;;;;;5066445;28;19968;-71
2022/11/07 02:56:10;;;;;;;;;;;11.00;99.90;;;;;;5083098;28;19924;-75
2022/11/07 02:58:36;;;;;;;;;;;11.00;99.90;;;;;;5082140;28;19924;-71
2022/11/07 03:01:05;;;;;;;;;;;11.00;99.90;;;;;;5069229;28;19935;-72
2022/11/07 03:03:45;;;;;;;;;;;11.00;99.90;;;;;;5068968;28;19970;-73
2022/11/07 03:06:12;;;;;;;;;;;10.90;99.90;;;;;;5070991;28;19924;-74
2022/11/07 03:08:37;;;;;;;;;;;10.90;99.90;;;;;;5074201;28;19920;-72
2022/11/07 03:11:03;;;;;;;;;;;10.90;99.90;;;;;;5063788;28;19921;-70
2022/11/07 03:13:28;;;;;;;;;;;10.80;99.90;;;;;;5073731;28;20371;-71
2022/11/07 03:15:54;;;;;;;;;;;10.80;99.90;;;;;;5083588;28;20403;-75
2022/11/07 03:18:20;;;;;;;;;;;10.80;99.90;;;;;;5080729;28;19920;-70
2022/11/07 03:20:46;;;;;;;;;;;10.80;99.90;;;;;;5083649;28;19924;-75
2022/11/07 03:23:11;;;;;;;;;;;10.70;99.90;;;;;;5073731;28;20389;-73
2022/11/07 03:25:37;;;;;;;;;;;10.70;99.90;;;;;;5074900;28;19924;-72
2022/11/07 03:28:02;;;;;;;;;;;10.80;99.90;;;;;;5074820;28;19963;-74
2022/11/07 03:30:28;;;;;;;;;;;10.80;99.90;;;;;;5065758;28;19928;-74
2022/11/07 03:32:54;;;;;;;;;;;10.80;99.90;;;;;;5059412;28;19920;-76
2022/11/07 03:35:20;;;;;;;;;;;10.80;99.90;;;;;;5078755;28;19928;-74
2022/11/07 03:37:46;;;;;;;;;;;10.90;99.90;;;;;;5075943;28;19927;-73
2022/11/07 03:40:11;;;;;;;;;;;10.90;99.90;;;;;;5101714;27;19928;-74
2022/11/07 03:42:40;;;;;;;;;;;10.90;99.90;;;;;;5065218;28;19927;-74
2022/11/07 03:45:07;;;;;;;;;;;10.90;99.90;;;;;;5072432;28;19978;-76
2022/11/07 03:47:34;;;;;;;;;;;11.00;99.90;;;;;;5072960;28;20298;-74
2022/11/07 03:49:59;;;;;;;;;;;11.00;99.90;;;;;;5076339;28;19975;-77
2022/11/07 03:52:25;;;;;;;;;;;11.00;99.90;;;;;;5061899;28;19959;-73
2022/11/07 03:54:50;;;;;;;;;;;11.00;99.90;;;;;;5066532;28;19924;-77
2022/11/07 03:57:16;;;;;;;;;;;11.00;99.90;;;;;;5066492;28;19935;-75
2022/11/07 03:59:41;;;;;;;;;;;10.90;99.90;;;;;;5055322;28;19920;-74
2022/11/07 04:02:07;;;;;;;;;;;10.90;99.90;;;;;;5068556;28;20600;-77
2022/11/07 04:04:32;;;;;;;;;;;11.00;99.90;;;;;;5065071;28;19982;-73
2022/11/07 04:06:58;;;;;;;;;;;10.90;99.90;;;;;;5067630;28;19950;-75
2022/11/07 04:09:23;;;;;;;;;;;11.00;99.90;;;;;;5066977;28;19979;-77
2022/11/07 04:17:18;;;;;;;;;;;10.80;99.90;;;;;;5068090;28;19931;-73
2022/11/07 04:19:43;;;;;;;;;;;10.80;99.90;;;;;;5050042;28;19928;-77
2022/11/07 04:22:09;;;;;;;;;;;10.80;99.90;;;;;;5079865;28;19926;-74
2022/11/07 04:24:34;;;;;;;;;;;10.80;99.90;;;;;;5066543;28;19920;-75
2022/11/07 04:29:44;;;;;;;;;;;10.80;99.90;;;;;;5063151;28;19990;-76
2022/11/07 04:32:10;;;;;;;;;;;10.80;99.90;;;;;;5062656;28;19928;-76
2022/11/07 04:34:35;;;;;;;;;;;10.80;99.90;;;;;;5076479;28;19931;-73
2022/11/07 04:37:01;;;;;;;;;;;10.70;99.90;;;;;;5068572;28;19951;-75
2022/11/07 04:39:27;;;;;;;;;;;10.70;99.90;;;;;;5081887;28;19924;-75
2022/11/07 04:41:53;;;;;;;;;;;10.60;99.90;;;;;;5071792;28;20065;-73
2022/11/07 04:44:18;;;;;;;;;;;10.70;99.90;;;;;;5072816;28;20007;-78
2022/11/07 04:46:44;;;;;;;;;;;10.60;99.90;;;;;;5065037;28;20006;-71
2022/11/07 04:49:13;;;;;;;;;;;10.60;99.90;;;;;;5056959;28;19924;-75
2022/11/07 04:51:42;;;;;;;;;;;10.60;99.90;;;;;;5071521;28;20488;-73
2022/11/07 04:54:14;;;;;;;;;;;10.60;99.90;;;;;;5074308;28;19928;-77
2022/11/07 04:56:40;;;;;;;;;;;10.60;99.90;;;;;;5052598;28;20239;-73
2022/11/07 04:59:06;;;;;;;;;;;10.60;99.90;;;;;;5099010;27;20174;-76
2022/11/07 05:01:31;;;;;;;;;;;10.50;99.90;;;;;;5051043;28;20294;-74
2022/11/07 05:03:57;;;;;;;;;;;10.50;99.90;;;;;;5072271;28;20346;-73
2022/11/07 05:06:22;;;;;;;;;;;10.50;99.90;;;;;;5071415;28;19924;-76
2022/11/07 05:08:48;;;;;;;;;;;10.50;99.90;;;;;;5065820;28;20375;-75
2022/11/07 05:11:14;;;;;;;;;;;10.40;99.90;;;;;;5073146;28;19974;-73
2022/11/07 05:13:39;;;;;;;;;;;10.40;99.90;;;;;;5065320;28;20271;-71
2022/11/07 05:16:05;;;;;;;;;;;10.50;99.90;;;;;;5064244;28;19929;-75
2022/11/07 05:18:31;;;;;;;;;;;10.50;99.90;;;;;;5097148;27;20325;-74
2022/11/07 05:20:56;;;;;;;;;;;10.50;99.90;;;;;;5068015;28;19924;-71
2022/11/07 05:23:22;;;;;;;;;;;10.40;99.90;;;;;;5060181;28;19925;-75
2022/11/07 05:25:49;;;;;;;;;;;10.40;99.90;;;;;;5068524;28;20001;-73
2022/11/07 05:28:19;;;;;;;;;;;10.40;99.90;;;;;;5048418;28;20343;-74
2022/11/07 05:30:45;;;;;;;;;;;10.50;99.90;;;;;;5068733;28;19921;-74
2022/11/07 05:33:11;;;;;;;;;;;10.50;99.90;;;;;;5064067;28;20390;-77
2022/11/07 05:35:37;;;;;;;;;;;10.60;99.90;;;;;;5069300;28;19931;-74
2022/11/07 05:38:02;;;;;;;;;;;10.60;99.90;;;;;;5057580;28;19928;-77
2022/11/07 05:40:28;;;;;;;;;;;10.70;99.90;;;;;;5062041;28;19977;-70
2022/11/07 05:42:57;;;;;;;;;;;10.70;99.90;;;;;;5065053;28;19920;-72
2022/11/07 05:45:23;;;;;;;;;;;10.80;99.90;;;;;;5110865;28;19939;-73
2022/11/07 05:47:55;;;;;;;;;;;10.80;99.90;;;;;;5070190;28;19925;-73
2022/11/07 05:50:20;;;;;;;;;;;10.80;99.90;;;;;;5074052;28;20019;-72
2022/11/07 05:52:46;;;;;;;;;;;10.80;99.90;;;;;;5076077;28;20057;-76
2022/11/07 05:55:11;;;;;;;;;;;10.80;99.90;;;;;;5073984;28;20031;-73
2022/11/07 05:57:37;;;;;;;;;;;10.90;99.90;;;;;;5050547;28;19928;-76
2022/11/07 06:00:02;;;;;;;;;;;10.90;99.90;;;;;;5101143;28;20306;-73
2022/11/07 06:02:28;;;;;;;;;;;10.90;99.90;;;;;;5105605;28;19921;-77
2022/11/07 06:04:55;;;;;;;;;;;10.80;99.90;;;;;;5068563;28;19920;-75
2022/11/07 06:07:21;;;;;;;;;;;10.90;99.90;;;;;;5069346;28;19924;-72
2022/11/07 06:09:46;;;;;;;;;;;10.90;99.90;;;;;;5073026;28;19935;-74
2022/11/07 06:12:12;;;;;;;;;;;10.80;99.90;;;;;;5071860;28;19920;-72
2022/11/07 06:14:37;;;;;;;;;;;10.80;99.90;;;;;;5072715;28;19921;-75
2022/11/07 06:17:03;;;;;;;;;;;10.80;99.90;;;;;;5073472;28;20410;-72
2022/11/07 06:19:28;;;;;;;;;;;10.80;99.90;;;;;;5069980;28;19925;-74
2022/11/07 06:21:54;;;;;;;;;;;10.80;99.90;;;;;;5070670;28;20026;-75
2022/11/07 06:24:19;;;;;;;;;;;10.80;99.90;;;;;;5074959;28;19920;-72
2022/11/07 06:26:45;;;;;;;;;;;10.80;99.90;;;;;;5073061;28;19925;-76
2022/11/07 06:29:10;;;;;;;;;;;10.80;99.90;;;;;;5067286;28;20385;-76
2022/11/07 06:31:36;;;;;;;;;;;10.80;99.90;;;;;;5064348;28;19924;-72
2022/11/07 06:34:01;;;;;;;;;;;10.80;99.90;;;;;;5054836;28;19929;-74
2022/11/07 06:36:26;;;;;;;;;;;10.80;99.90;;;;;;5065909;28;19943;-72
2022/11/07 06:38:52;;;;;;;;;;;10.80;99.90;;;;;;5065356;28;19963;-75
2022/11/07 06:41:17;;;;;;;;;;;10.80;99.90;;;;;;5071543;28;20457;-75
2022/11/07 06:43:43;;;;;;;;;;;10.90;99.90;;;;;;5074887;28;19920;-77
2022/11/07 06:46:10;;;;;;;;;;;10.90;99.90;;;;;;5060456;28;19947;-76
2022/11/07 06:48:36;;;;;;;;;;;10.80;99.90;;;;;;5073003;28;20282;-75
2022/11/07 06:51:03;;;;;;;;;;;10.90;99.90;;;;;;5064349;28;19920;-73
2022/11/07 06:53:28;;;;;;;;;;;10.80;99.90;;;;;;5072628;28;20337;-73
2022/11/07 06:55:54;;;;;;;;;;;10.90;99.90;;;;;;5068684;28;19921;-74
2022/11/07 06:58:20;;;;;;;;;;;10.90;99.90;;;;;;5084092;28;19981;-73
2022/11/07 07:00:45;;;;;;;;;;;10.90;99.90;;;;;;5064077;28;19921;-73
2022/11/07 07:03:11;;;;;;;;;;;11.00;99.90;;;;;;5073615;28;19927;-75
2022/11/07 07:05:36;;;;;;;;;;;10.90;99.90;;;;;;5066962;28;20023;-76
2022/11/07 07:08:03;;;;;;;;;;;10.90;99.90;;;;;;5073335;28;20363;-73
2022/11/07 07:10:28;;;;;;;;;;;11.00;99.90;;;;;;5065841;28;19935;-72
2022/11/07 07:12:55;;;;;;;;;;;11.00;99.90;;;;;;5060939;28;19920;-73
2022/11/07 07:15:20;;;;;;;;;;;11.00;99.90;;;;;;5077084;28;19920;-75
2022/11/07 07:17:57;;;;;;;;;;;11.00;99.90;;;;;;5108508;27;19935;-74
2022/11/07 07:20:23;;;;;;;;;;;11.00;99.90;;;;;;5101962;27;19924;-76
2022/11/07 07:22:48;;;;;;;;;;;11.10;99.90;;;;;;5066524;28;19931;-74
2022/11/07 07:25:14;;;;;;;;;;;11.10;99.90;;;;;;5072059;28;19925;-75
2022/11/07 07:27:39;;;;;;;;;;;11.20;99.90;;;;;;5062550;28;19924;-74
2022/11/07 07:30:05;;;;;;;;;;;11.20;99.90;;;;;;5068401;28;19924;-70
2022/11/07 07:32:30;;;;;;;;;;;11.20;99.90;;;;;;5069275;28;19925;-75
2022/11/07 07:34:56;;;;;;;;;;;11.30;99.90;;;;;;5055607;28;20615;-74
2022/11/07 07:37:21;;;;;;;;;;;11.20;99.90;;;;;;5071739;28;19947;-72
2022/11/07 07:39:47;;;;;;;;;;;11.30;99.90;;;;;;5082941;28;20015;-73
2022/11/07 07:42:12;;;;;;;;;;;11.30;99.90;;;;;;5057362;28;19943;-76
2022/11/07 07:44:38;;;;;;;;;;;11.40;99.90;;;;;;5070174;28;19960;-74
2022/11/07 07:47:03;;;;;;;;;;;11.40;99.90;;;;;;5078206;28;19950;-74
2022/11/07 07:49:29;;;;;;;;;;;11.50;99.90;;;;;;5070201;28;19925;-72
2022/11/07 07:51:55;;;;;;;;;;;11.40;99.90;;;;;;5067481;28;19920;-71
2022/11/07 07:54:20;;;;;;;;;;;11.50;99.90;;;;;;5070144;28;19973;-76
2022/11/07 07:56:46;;;;;;;;;;;11.60;99.90;;;;;;5093789;28;19960;-74
2022/11/07 07:59:11;;;;;;;;;;;11.50;99.90;;;;;;5078891;28;19966;-71
2022/11/07 08:01:37;;;;;;;;;;;11.60;99.90;;;;;;5072449;28;19920;-72
2022/11/07 08:04:03;;;;;;;;;;;11.60;99.90;;;;;;5065383;28;19925;-73
2022/11/07 08:06:28;;;;;;;;;;;11.60;99.90;;;;;;5069050;28;19928;-75
2022/11/07 08:08:54;;;;;;;;;;;11.70;99.90;;;;;;5072580;28;20003;-73
2022/11/07 08:11:19;;;;;;;;;;;11.70;99.90;;;;;;5068889;28;19927;-76
2022/11/07 08:13:44;;;;;;;;;;;11.70;99.90;;;;;;5061353;28;19949;-72
2022/11/07 08:16:10;;;;;;;;;;;11.80;99.90;;;;;;5068678;28;20054;-76
2022/11/07 08:18:38;;;;;;;;;;;11.80;99.90;;;;;;5071583;28;19924;-73
2022/11/07 08:21:05;;;;;;;;;;;11.80;99.90;;;;;;5065980;28;19950;-74
2022/11/07 08:23:30;;;;;;;;;;;11.80;99.90;;;;;;5084797;28;19950;-73
2022/11/07 08:25:56;;;;;;;;;;;11.80;99.90;;;;;;5079697;28;20507;-73
2022/11/07 08:28:23;;;;;;;;;;;11.90;99.90;;;;;;5109851;27;20006;-74
2022/11/07 08:30:55;;;;;;;;;;;11.90;99.90;;;;;;5064132;28;20567;-76
2022/11/07 08:33:20;;;;;;;;;;;11.90;99.90;;;;;;5069961;28;19929;-74
2022/11/07 08:35:46;;;;;;;;;;;11.90;99.90;;;;;;5075231;28;19952;-78
2022/11/07 08:38:11;;;;;;;;;;;12.00;99.90;;;;;;5072391;28;19928;-75
2022/11/07 08:40:37;;;;;;;;;;;12.00;99.90;;;;;;5066179;28;19976;-71
2022/11/07 08:43:02;;;;;;;;;;;11.90;99.90;;;;;;5062851;28;19921;-74
2022/11/07 08:45:28;;;;;;;;;;;12.00;99.90;;;;;;5065956;28;19935;-75
2022/11/07 08:47:57;;;;;;;;;;;12.00;99.90;;;;;;5070497;28;20282;-70
2022/11/07 08:50:23;;;;;;;;;;;12.00;99.90;;;;;;5051004;28;20331;-72
2022/11/07 08:52:48;;;;;;;;;;;12.00;99.90;;;;;;5064552;28;19963;-77
2022/11/07 08:55:15;;;;;;;;;;;12.00;99.90;;;;;;5068778;28;20393;-73
2022/11/07 08:57:40;;;;;;;;;;;12.10;99.90;;;;;;5102209;27;20106;-75
2022/11/07 09:00:06;;;;;;;;;;;12.10;99.90;;;;;;5072247;28;19951;-74
2022/11/07 09:02:32;;;;;;;;;;;12.20;99.90;;;;;;5050504;28;20374;-77
2022/11/07 09:04:57;;;;;;;;;;;12.10;99.90;;;;;;5076953;28;20039;-71
2022/11/07 09:07:23;;;;;;;;;;;12.20;99.90;;;;;;5067479;28;19924;-71
2022/11/07 09:09:48;;;;;;;;;;;12.20;99.90;;;;;;5066528;28;19928;-70
2022/11/07 09:12:14;;;;;;;;;;;12.30;99.90;;;;;;5069866;28;20383;-73
2022/11/07 09:14:39;;;;;;;;;;;12.30;99.90;;;;;;5097194;27;19969;-75
2022/11/07 09:17:04;;;;;;;;;;;12.40;99.90;;;;;;5098340;27;19932;-71
2022/11/07 09:19:30;;;;;;;;;;;12.50;99.90;;;;;;5073358;28;20319;-70
2022/11/07 09:21:56;;;;;;;;;;;12.50;99.90;;;;;;5073455;28;19970;-74
2022/11/07 09:24:21;;;;;;;;;;;12.50;99.90;;;;;;5065264;28;19929;-71
2022/11/07 09:26:47;;;;;;;;;;;12.60;99.90;;;;;;5062408;28;19928;-73
2022/11/07 09:29:12;;;;;;;;;;;12.70;99.90;;;;;;5072784;28;20099;-74
2022/11/07 09:31:38;;;;;;;;;;;12.70;99.90;;;;;;5094654;28;20437;-78
2022/11/07 09:34:03;;;;;;;;;;;12.70;99.90;;;;;;5090931;28;19971;-78
2022/11/07 09:36:29;;;;;;;;;;;12.60;99.90;;;;;;5050440;28;19986;-74
2022/11/07 09:38:56;;;;;;;;;;;12.70;99.90;;;;;;5069177;28;19928;-74
2022/11/07 09:41:30;;;;;;;;;;;12.60;99.90;;;;;;5065369;28;19968;-73
2022/11/07 09:43:55;;;;;;;;;;;12.50;99.90;;;;;;5083684;28;19921;-74
2022/11/07 09:46:39;;;;;;;;;;;12.40;99.90;;;;;;5098564;28;19936;-76
2022/11/07 09:49:13;;;;;;;;;;;12.40;99.90;;;;;;5064057;28;19928;-76
2022/11/07 09:51:44;;;;;;;;;;;12.40;99.90;;;;;;5059247;28;19925;-75
2022/11/07 09:54:31;;;;;;;;;;;12.40;99.90;;;;;;5052522;28;19924;-73
2022/11/07 09:56:58;;;;;;;;;;;12.40;99.90;;;;;;5067648;28;19945;-73
2022/11/07 09:59:26;;;;;;;;;;;12.50;99.90;;;;;;5080934;28;19986;-76
2022/11/07 10:01:51;;;;;;;;;;;12.50;99.90;;;;;;5046272;28;20072;-76
2022/11/07 10:04:18;;;;;;;;;;;12.50;99.90;;;;;;5097385;28;19934;-73
2022/11/07 10:07:08;;;;;;;;;;;12.60;99.90;;;;;;5093939;28;19925;-73
2022/11/07 10:09:34;;;;;;;;;;;12.70;99.90;;;;;;5082722;28;19924;-74
2022/11/07 10:12:16;;;;;;;;;;;12.70;99.90;;;;;;5048741;28;20286;-73
2022/11/07 10:14:48;;;;;;;;;;;12.80;99.90;;;;;;5071265;28;20383;-72
2022/11/07 10:17:25;;;;;;;;;;;12.80;99.90;;;;;;5065742;28;20378;-76
2022/11/07 10:20:06;;;;;;;;;;;12.90;99.90;;;;;;5073551;28;20225;-73
2022/11/07 10:22:50;;;;;;;;;;;13.00;99.90;;;;;;5071639;28;19920;-76
2022/11/07 10:25:22;;;;;;;;;;;13.10;99.90;;;;;;5056691;28;20336;-71
2022/11/07 10:27:59;;;;;;;;;;;13.10;99.90;;;;;;5069341;28;19919;-79
2022/11/07 10:30:24;;;;;;;;;;;13.10;99.90;;;;;;5071992;28;19931;-74
2022/11/07 10:32:53;;;;;;;;;;;13.20;99.90;;;;;;5070019;28;19920;-73
2022/11/07 10:35:27;;;;;;;;;;;13.20;99.90;;;;;;5069950;28;19921;-71
2022/11/07 10:38:00;;;;;;;;;;;13.20;99.90;;;;;;5066881;28;20015;-67
2022/11/07 10:40:37;;;;;;;;;;;13.20;99.90;;;;;;5100750;27;20061;-68
2022/11/07 10:43:05;;;;;;;;;;;13.30;99.90;;;;;;5068489;28;19924;-68
2022/11/07 10:45:31;;;;;;;;;;;13.40;99.90;;;;;;5069965;28;19978;-68
2022/11/07 10:48:01;;;;;;;;;;;13.40;99.90;;;;;;5101344;27;20717;-69
2022/11/07 10:50:27;;;;;;;;;;;13.40;99.90;;;;;;5073606;28;19947;-66
2022/11/07 10:52:58;;;;;;;;;;;13.50;99.90;;;;;;5068646;28;20393;-67
2022/11/07 10:55:25;;;;;;;;;;;13.60;99.90;;;;;;5065431;28;20651;-64
2022/11/07 10:58:01;;;;;;;;;;;13.60;99.90;;;;;;5066374;28;19930;-67
2022/11/07 11:00:28;;;;;;;;;;;13.60;99.90;;;;;;5067745;28;19921;-67
2022/11/07 11:02:55;;;;;;;;;;;13.50;99.90;;;;;;5058554;28;21431;-66
2022/11/07 11:05:31;;;;;;;;;;;13.60;99.90;;;;;;5062209;28;19924;-67
2022/11/07 11:08:06;;;;;;;;;;;13.50;99.90;;;;;;5063864;28;19928;-67
2022/11/07 11:10:36;;;;;;;;;;;13.50;99.90;;;;;;5060217;28;19920;-67
2022/11/07 11:13:01;;;;;;;;;;;13.60;99.90;;;;;;5066584;28;19964;-66
2022/11/07 11:15:27;;;;;;;;;;;13.70;99.90;;;;;;5066538;28;20013;-67
2022/11/07 11:18:00;;;;;;;;;;;13.70;99.90;;;;;;5062980;28;19925;-67
2022/11/07 11:20:29;;;;;;;;;;;13.90;99.90;;;;;;5070520;28;19931;-66
2022/11/07 11:22:55;;;;;;;;;;;13.80;99.90;;;;;;5060329;28;19924;-66
2022/11/07 11:25:22;;;;;;;;;;;13.90;99.90;;;;;;5065775;28;19932;-66
2022/11/07 11:27:50;;;;;;;;;;;14.00;99.90;;;;;;5063676;28;20606;-69
2022/11/07 11:30:17;;;;;;;;;;;14.00;99.90;;;;;;5056349;28;19920;-68
2022/11/07 11:33:02;;;;;;;;;;;14.00;99.90;;;;;;5063541;28;19920;-66
2022/11/07 11:35:44;;;;;;;;;;;14.00;99.90;;;;;;5064397;28;19931;-67
2022/11/07 11:38:22;;;;;;;;;;;14.10;99.90;;;;;;5065116;28;20015;-67
2022/11/07 11:40:50;;;;;;;;;;;14.10;99.90;;;;;;5065864;28;19924;-66
2022/11/07 11:43:18;;;;;;;;;;;14.10;99.90;;;;;;5064916;28;19952;-67
2022/11/07 11:45:58;;;;;;;;;;;14.10;99.90;;;;;;5063690;28;19932;-66
2022/11/07 11:48:35;;;;;;;;;;;14.20;99.90;;;;;;5070080;28;19928;-68
2022/11/07 11:51:06;;;;;;;;;;;14.30;99.90;;;;;;5066946;28;19921;-68
2022/11/07 11:53:31;;;;;;;;;;;14.30;99.90;;;;;;5067617;28;20007;-77
2022/11/07 11:56:06;;;;;;;;;;;14.20;99.90;;;;;;5062098;28;20049;-75
2022/11/07 11:58:35;;;;;;;;;;;14.20;99.90;;;;;;5100934;27;19995;-73
2022/11/07 12:01:20;;;;;;;;;;;14.20;99.90;;;;;;5070297;28;20007;-78
2022/11/07 12:03:58;;;;;;;;;;;14.10;99.90;;;;;;5099605;28;19963;-76
2022/11/07 12:06:44;;;;;;;;;;;14.10;99.90;;;;;;5065423;28;19925;-75
2022/11/07 12:09:09;;;;;;;;;;;14.10;99.90;;;;;;5075868;28;20087;-72
2022/11/07 12:11:44;;;;;;;;;;;14.10;99.90;;;;;;5069276;28;19931;-77
2022/11/07 12:14:29;;;;;;;;;;;14.00;99.90;;;;;;5074066;28;19936;-73
2022/11/07 12:17:02;;;;;;;;;;;14.00;99.90;;;;;;5070242;28;19920;-76
2022/11/07 12:19:34;;;;;;;;;;;14.00;99.90;;;;;;5064543;28;19971;-71
2022/11/07 12:22:12;;;;;;;;;;;13.90;99.90;;;;;;5107370;27;19971;-78
2022/11/07 12:24:43;;;;;;;;;;;13.90;99.90;;;;;;5071568;28;19920;-75
2022/11/07 12:27:28;;;;;;;;;;;13.90;99.90;;;;;;5073189;28;20376;-75
2022/11/07 12:29:53;;;;;;;;;;;13.90;99.90;;;;;;5072399;28;19930;-71
2022/11/07 12:32:37;;;;;;;;;;;13.80;99.90;;;;;;5071578;28;19975;-73
2022/11/07 12:35:13;;;;;;;;;;;13.90;99.90;;;;;;5068726;28;19924;-75
2022/11/07 12:38:04;;;;;;;;;;;13.90;99.90;;;;;;5077319;28;20471;-72
2022/11/07 12:40:51;;;;;;;;;;;14.00;99.90;;;;;;5059980;28;19920;-71
2022/11/07 12:43:25;;;;;;;;;;;13.90;99.90;;;;;;5054741;28;19967;-78
2022/11/07 12:45:58;;;;;;;;;;;14.00;99.90;;;;;;5071724;28;20351;-77
2022/11/07 12:48:27;;;;;;;;;;;14.00;99.90;;;;;;5057926;28;19920;-70
2022/11/07 12:51:19;;;;;;;;;;;14.10;99.90;;;;;;5064143;28;20011;-76
2022/11/07 12:53:51;;;;;;;;;;;14.00;99.90;;;;;;5070125;28;19974;-78
2022/11/07 12:56:20;;;;;;;;;;;14.00;99.90;;;;;;5074718;28;19978;-74
2022/11/07 12:58:46;;;;;;;;;;;13.90;99.90;;;;;;5069539;28;20379;-74
2022/11/07 13:01:12;;;;;;;;;;;13.90;99.90;;;;;;5071485;28;19932;-77
2022/11/07 13:03:56;;;;;;;;;;;13.90;99.90;;;;;;5053565;28;20289;-78
2022/11/07 13:06:47;;;;;;;;;;;13.90;99.90;;;;;;5076276;28;19924;-73
2022/11/07 13:09:43;;;;;;;;;;;13.80;99.90;;;;;;5086115;28;19963;-76
2022/11/07 13:12:20;;;;;;;;;;;13.80;99.90;;;;;;5073566;28;19928;-75
2022/11/07 13:14:45;;;;;;;;;;;13.80;99.90;;;;;;5067572;28;20066;-79
2022/11/07 13:17:29;;;;;;;;;;;13.90;99.90;;;;;;5061434;28;20027;-75
2022/11/07 13:20:13;;;;;;;;;;;13.90;99.90;;;;;;5111301;27;19929;-74
2022/11/07 13:22:39;;;;;;;;;;;13.90;99.90;;;;;;5070220;28;19924;-74
2022/11/07 13:25:25;;;;;;;;;;;13.80;99.90;;;;;;5073644;28;19920;-74
2022/11/07 13:27:53;;;;;;;;;;;13.80;99.90;;;;;;5068940;28;19921;-74
2022/11/07 13:30:46;;;;;;;;;;;13.70;99.90;;;;;;5061115;28;19947;-75
2022/11/07 13:33:23;;;;;;;;;;;13.80;99.90;;;;;;5064284;28;19924;-73
2022/11/07 13:35:53;;;;;;;;;;;13.70;99.90;;;;;;5075407;28;19947;-73
2022/11/07 13:38:22;;;;;;;;;;;13.80;99.90;;;;;;5063386;28;20024;-77
2022/11/07 13:40:51;;;;;;;;;;;13.70;99.90;;;;;;5115679;28;19928;-75
2022/11/07 13:43:18;;;;;;;;;;;13.70;99.90;;;;;;5082191;28;20375;-75
2022/11/07 13:45:44;;;;;;;;;;;13.60;99.90;;;;;;5077053;28;19948;-71
2022/11/07 13:48:14;;;;;;;;;;;13.60;99.90;;;;;;5076418;28;19920;-74
2022/11/07 13:50:40;;;;;;;;;;;13.70;99.90;;;;;;5085204;28;19966;-76
2022/11/07 13:53:11;;;;;;;;;;;13.70;99.90;;;;;;5080665;28;19942;-78
2022/11/07 13:55:43;;;;;;;;;;;13.70;99.90;;;;;;5076682;28;19927;-74
2022/11/07 13:58:11;;;;;;;;;;;13.60;99.90;;;;;;5073661;28;19927;-73
2022/11/07 14:00:37;;;;;;;;;;;13.70;99.90;;;;;;5077733;28;19986;-71
2022/11/07 14:03:03;;;;;;;;;;;13.60;99.90;;;;;;5076468;28;19924;-73
2022/11/07 14:05:33;;;;;;;;;;;13.70;99.90;;;;;;5076955;28;19924;-73
2022/11/07 14:07:59;;;;;;;;;;;13.60;99.90;;;;;;5085635;28;19943;-71
2022/11/07 14:10:27;;;;;;;;;;;13.70;99.90;;;;;;5081769;28;19920;-74
2022/11/07 14:12:59;;;;;;;;;;;13.70;99.90;;;;;;5072330;28;19921;-72
2022/11/07 14:15:25;;;;;;;;;;;13.70;99.90;;;;;;5072613;28;19927;-73
2022/11/07 14:17:51;;;;;;;;;;;13.70;99.90;;;;;;5070174;28;19921;-75
2022/11/07 14:20:18;;;;;;;;;;;13.70;99.90;;;;;;5073594;28;20479;-79
2022/11/07 14:22:54;;;;;;;;;;;13.60;99.90;;;;;;5071679;28;19921;-74
2022/11/07 14:25:25;;;;;;;;;;;13.70;99.90;;;;;;5082376;28;19920;-72
2022/11/07 14:28:17;;;;;;;;;;;13.70;99.90;;;;;;5069352;28;19928;-73
2022/11/07 14:30:42;;;;;;;;;;;13.70;99.90;;;;;;5072371;28;19935;-77
2022/11/07 14:33:34;;;;;;;;;;;13.70;99.90;;;;;;5066959;28;21330;-77